Ritzville, WA

4:43 PM PDT on July 23, 2014 (GMT -0700)
Grant County International (KMWH) Elev 1184 ft | 47.21 °N, 119.32 °W | Change Station

Current weather conditions updated 51 minutes ago

Overcast
Overcast
72 °F
Feels Like 72 °F
N
24
Wind Variable Wind from WSW
Gusts 37 mph

Tomorrow is forecast to be Much Cooler than today.

Today
High -- | Low -- °F
--% Chance of Precip.
Yesterday
High -- | Low -- °F
Precip. -- in
5:21 AM 8:37 PM
Waning Crescent, 8% visible
Pressure 29.90 in
Visibility 10.0 miles
Clouds Few 2300 ft
Mostly Cloudy 6500 ft
Overcast 9000 ft
Dew Point 59 °F
Humidity 64%
Rainfall 0.01 in
Snow Depth Not available.
UV 2 out of 12
Pollen 5.40 out of 12
Air Quality Not available.
Flu Activity Not available.
METAR KMWH 232252Z 24021G32KT 10SM -RA FEW023 BKN065 OVC090 22/15 A2991 RMK AO2 PK WND 22045/2231 RAB34 PRESRR SLP125 P0001 T02220150

More Conditions Fewer Conditions

Pressure 29.90 in
Visibility 10.0 miles
Clouds Few 2300 ft
Mostly Cloudy 6500 ft
Overcast 9000 ft
Dew Point 59 °F
Humidity 64%
Rainfall 0.01 in
Snow Depth Not available.
UV 2 out of 12
Pollen 5.40 out of 12
Air Quality Not available.
Flu Activity Not available.
METAR KMWH 232252Z 24021G32KT 10SM -RA FEW023 BKN065 OVC090 22/15 A2991 RMK AO2 PK WND 22045/2231 RAB34 PRESRR SLP125 P0001 T02220150

More Conditions Fewer Conditions

10-Day Weather Forecast

Almanac

Astronomy

Jul. 23, 2014 Rise Set
Actual Time 5:21 AM PDT 8:37 PM PDT
Civil Twilight 4:44 AM PDT 9:14 PM PDT
Nautical Twilight 3:56 AM PDT 10:02 PM PDT
Astronomical Twilight 2:55 AM PDT 11:02 PM PDT
Moon 2:46 AM PDT 6:08 PM PDT
Length of Visible Light 16h 29m
Length of Day
15h 15m
Tomorrow will be 2m 16s shorter.
Waning Crescent, 8% of the Moon is Illuminated
Today
Waning Crescent
Jul 26
New
Aug 3
First Quarter
Aug 10
Full
Aug 17
Last Quarter

Today's Extremes

State Highs State Lows

Community

WunderPhotos

Upload Photos

1,736,817 photos uploaded!

Nearby

Snow Depth

Station Depth Elevation
Touchet 0 in 5530 ft
Spruce Springs 0 in 5700 ft
Sourdough Gulch 0 in 4000 ft
Quartz Peak 0 in 4700 ft
Trough 0 in 5300 ft

Earthquake Activity

City Distance Mag. Time & Date
No recent earthquake activity has been reported nearby.
Minimum magnitude displayed is 2.5.

Coastal Water Temperatures

Place Temperature
No Stations Reporting

Nearby Weather Stations

Station Location Temp. Heat Index Dew Point Humidity Wind Precip. Elev Updated Type
MesoWest TESKE , Ritzville, WA 92 °F 88 °F - - North  at  - 0.00 in / hr 1759 ft 1:40 PM PDT MADIS
Grange Supply of Odessa, Odessa, WA 77.9 °F 79 °F 54 °F 43% South  at  20.0 mph 0.00 in / hr 1539 ft 3:23 PM PDT Rapid Fire
RAWS ESCURE WA, Benge, WA 61 °F - 57 °F 88% WSW  at  10 mph 0.39 in / hr 1740 ft 3:41 PM PDT MADIS

Show More Stations Show Fewer Stations